Bookmark and Share
Track history (hours):
 

M/V Brave

More information available from US FCC via Universal Licensing System and Coast Guard Vessel Documentation Center.

Last reported at 2014-Feb-16 06:06 UTC. Time now 2014-Apr-17 18:30 UTC.
Position N 29°39' W 089°57'.
Warning: this ship's position is months out of date.

Length 16 m; draft 3 m.

Type: Towing. MMSI: 366961930.

NotesDate/timePositionNaut miles runAvg speedWind from/ knotsBaromVisibWave heightAir tempDewpointWater temp
2014-Feb-16 06:06N 29°39' W 089°57'0 0.0
2014-Feb-16 05:33N 29°39' W 089°57'1 0.9
2014-Feb-16 04:33N 29°39' W 089°57'52 1.8
2014-Feb-15 00:31N 29°34' W 090°57'5 5.0
2014-Feb-14 23:33N 29°37' W 091°01'5 5.0
2014-Feb-14 22:34N 29°38' W 091°06'4 4.2
2014-Feb-14 21:33N 29°41' W 091°10'1 0.8
2014-Feb-14 20:34N 29°41' W 091°11'2 2.4
2014-Feb-14 19:33N 29°40' W 091°14'1 0.1
2014-Feb-14 15:34N 29°41' W 091°13'0 0.0
2014-Feb-14 13:34N 29°41' W 091°13'0 0.0
2014-Feb-14 12:34N 29°41' W 091°13'0 0.0
2014-Feb-14 11:34N 29°41' W 091°13'0 0.0
2014-Feb-14 10:34N 29°41' W 091°13'0 0.0
2014-Feb-14 09:34N 29°41' W 091°13'0 0.0
2014-Feb-14 08:34N 29°41' W 091°13'0 0.0
2014-Feb-14 07:34N 29°41' W 091°13'0 0.0
2014-Feb-14 06:34N 29°41' W 091°13'0 0.0
2014-Feb-14 05:34N 29°41' W 091°13'0 0.0
2014-Feb-14 04:34N 29°41' W 091°13'0 0.0
2014-Feb-14 03:34N 29°41' W 091°13'0 0.0
2014-Feb-14 02:34N 29°41' W 091°13'0 0.0
2014-Feb-14 01:34N 29°41' W 091°13'0 0.0
2014-Feb-14 00:33N 29°41' W 091°13'0 0.0
2014-Feb-13 23:34N 29°41' W 091°13'0 0.0
2014-Feb-13 22:34N 29°41' W 091°13'0 0.0
2014-Feb-13 21:33N 29°41' W 091°13'0 0.0
2014-Feb-13 20:34N 29°41' W 091°13'0 0.0
2014-Feb-13 19:33N 29°41' W 091°13'1 1.3
2014-Feb-13 18:33N 29°42' W 091°13'2 1.8
2014-Feb-13 17:33N 29°40' W 091°14'0 0.0
2014-Feb-13 16:33N 29°40' W 091°14'0 0.5
2014-Feb-13 15:33N 29°41' W 091°13'0 0.0
2014-Feb-13 14:33N 29°41' W 091°13'0 0.0
2014-Feb-13 13:33N 29°41' W 091°13'0 0.0
2014-Feb-13 12:33N 29°41' W 091°13'0 0.0
2014-Feb-13 11:33N 29°41' W 091°13'0 0.0
2014-Feb-13 10:33N 29°41' W 091°13'0 0.0
2014-Feb-13 09:33N 29°41' W 091°13'0 0.0
2014-Feb-13 08:33N 29°41' W 091°13'0 0.0
2014-Feb-13 07:33N 29°41' W 091°13'0 0.0
2014-Feb-13 06:33N 29°41' W 091°13'0 0.0
2014-Feb-13 05:33N 29°41' W 091°13'0 0.0
2014-Feb-13 04:33N 29°41' W 091°13'0 0.0
2014-Feb-13 03:33N 29°41' W 091°13'0 0.0
2014-Feb-13 02:33N 29°41' W 091°13'0 0.0
2014-Feb-13 01:33N 29°41' W 091°13'0 0.0
2014-Feb-13 00:34N 29°41' W 091°13'0 0.0
2014-Feb-12 23:33N 29°41' W 091°13'0 0.0
2014-Feb-12 22:33N 29°41' W 091°13'0 0.0
2014-Feb-12 21:33N 29°41' W 091°13'0 0.0
2014-Feb-12 20:33N 29°41' W 091°13'0 0.0
2014-Feb-12 19:33N 29°41' W 091°13'0 0.0
2014-Feb-12 18:33N 29°41' W 091°13'0 0.0
2014-Feb-12 17:33N 29°41' W 091°13'0 0.0
2014-Feb-12 16:33N 29°41' W 091°13'0 0.0
2014-Feb-12 15:33N 29°41' W 091°13'0 0.0
2014-Feb-12 14:33N 29°41' W 091°13'0 0.0
2014-Feb-12 13:33N 29°41' W 091°13'0 0.0
2014-Feb-12 12:33N 29°41' W 091°13'0 0.0
2014-Feb-12 11:33N 29°41' W 091°13'0 0.0
2014-Feb-12 10:33N 29°41' W 091°13'0 0.0
2014-Feb-12 09:33N 29°41' W 091°13'0 0.0
2014-Feb-12 08:33N 29°41' W 091°13'0 0.0
2014-Feb-12 07:33N 29°41' W 091°13'0 0.0
2014-Feb-12 06:33N 29°41' W 091°13'0 0.0
2014-Feb-12 05:33N 29°41' W 091°13'0 0.0
2014-Feb-12 04:33N 29°41' W 091°13'0 0.0
2014-Feb-12 03:33N 29°41' W 091°13'0 0.0
2014-Feb-12 02:33N 29°41' W 091°13'0 0.0
2014-Feb-12 01:33N 29°41' W 091°13'0 0.0
2014-Feb-12 00:33N 29°41' W 091°13'2 1.6
2014-Feb-11 23:33N 29°40' W 091°15'6 5.7
2014-Feb-11 22:33N 29°39' W 091°21'6 5.5
2014-Feb-11 21:32N 29°40' W 091°27'  

Dump ship's entire track history

sailing weather and tide predictions

M/V Brave — WDB8633 — position and weather